Airfield :
LOGIN :

Register | Disclaimer

   EN    FR    IT 

 










Legend :    VFR   Marginal VFR   IFR   Intensive IFR   Very Intensive IFR
Visi :
Ceiling :
>= 8 km
>= 3000ft
5 to 8 km
1000 to 3000 ft
1500m to 5 km
500 to 1000 ft
800 to 1500m
200 to 500 ft
< 800m
< 200 ft
Symbols :   Thunderstorms  Fog  Heavy snow  Heavy precipitations  Wind > 20 kt
SIGMETs :     Misc.  Thunderstorms  Icing  Turbulence  Mountain Waves  Volcanic Ashes






- Airport Elevation : 135 ft
- IATA code : EDI


EGPH - Edinburgh

CURRENT METAR :
  • 291120Z 06010KT 9999 SCT015 14/11 Q1009

EXPIRED METARs :
  • 291050Z 06009KT 9999 SCT015 15/12 Q1009
  • 291020Z 05009KT 9999 FEW015 15/11 Q1009
  • 290950Z 06011KT 9999 SCT015 15/11 Q1008
  • 290920Z 05008KT 9999 SCT016 14/11 Q1008
  • 290850Z 05009KT 010V070 9999 SCT036 14/10 Q1008

TAF TAF EGPH
Valid from the 29 at 12:00 until the 30 at 12:00 UTC


291104Z 2912/3012 06010KT 9999 FEW015
BECMG 2917/2920 18010KT
BECMG 3002/3006 18016G30KT
TEMPO 3007/3012 4000 RA
PROB40
TEMPO 3009/3012 19030G49KT
ATIS : +44 131 339 2823



MET'MAP, your aeronautical weather chart ! - Copyright ORBIFLY December 2007 - Disclaimer

ORBIFLY MET'MAP TEAM :

Programming & Development : Alexandra Zaïnal
Original concept : Baudouin d'Aumeries
Technical & hardware support : Manuel Goepfert
Assistance : Marc-Olivier Méhu




SOURCES & CREDITS :

   NOAA